sensor_id;sensor_type;location;lat;lon;timestamp;P1;durP1;ratioP1;P2;durP2;ratioP2
19414;SDS011;9843;48.882;12.592;2023-04-08T00:01:09;14.27;;;11.80;;
19414;SDS011;9843;48.882;12.592;2023-04-08T00:03:36;13.30;;;11.93;;
19414;SDS011;9843;48.882;12.592;2023-04-08T00:06:03;14.80;;;12.83;;
19414;SDS011;9843;48.882;12.592;2023-04-08T00:08:30;17.47;;;12.23;;
19414;SDS011;9843;48.882;12.592;2023-04-08T00:10:59;12.27;;;10.97;;
19414;SDS011;9843;48.882;12.592;2023-04-08T00:13:26;14.17;;;12.83;;
19414;SDS011;9843;48.882;12.592;2023-04-08T00:15:53;18.53;;;13.13;;
19414;SDS011;9843;48.882;12.592;2023-04-08T00:18:20;16.70;;;13.37;;
19414;SDS011;9843;48.882;12.592;2023-04-08T00:20:47;15.67;;;12.37;;
19414;SDS011;9843;48.882;12.592;2023-04-08T00:23:14;16.47;;;14.23;;
19414;SDS011;9843;48.882;12.592;2023-04-08T00:25:41;14.53;;;12.23;;
19414;SDS011;9843;48.882;12.592;2023-04-08T00:28:10;15.37;;;13.20;;
19414;SDS011;9843;48.882;12.592;2023-04-08T00:30:37;15.87;;;14.00;;
19414;SDS011;9843;48.882;12.592;2023-04-08T00:33:04;18.47;;;14.10;;
19414;SDS011;9843;48.882;12.592;2023-04-08T00:35:31;15.77;;;13.47;;
19414;SDS011;9843;48.882;12.592;2023-04-08T00:37:58;16.43;;;12.73;;
19414;SDS011;9843;48.882;12.592;2023-04-08T00:40:25;17.87;;;14.40;;
19414;SDS011;9843;48.882;12.592;2023-04-08T00:42:52;20.23;;;14.13;;
19414;SDS011;9843;48.882;12.592;2023-04-08T00:45:21;15.90;;;13.10;;
19414;SDS011;9843;48.882;12.592;2023-04-08T00:47:48;17.00;;;15.27;;
19414;SDS011;9843;48.882;12.592;2023-04-08T00:50:16;20.97;;;14.17;;
19414;SDS011;9843;48.882;12.592;2023-04-08T00:52:43;17.27;;;13.50;;
19414;SDS011;9843;48.882;12.592;2023-04-08T00:55:10;17.80;;;13.77;;
19414;SDS011;9843;48.882;12.592;2023-04-08T00:57:37;18.87;;;14.90;;
19414;SDS011;9843;48.882;12.592;2023-04-08T01:00:05;14.07;;;12.63;;
19414;SDS011;9843;48.882;12.592;2023-04-08T01:02:37;18.17;;;14.30;;
19414;SDS011;9843;48.882;12.592;2023-04-08T01:05:06;18.63;;;13.83;;
19414;SDS011;9843;48.882;12.592;2023-04-08T01:07:36;17.03;;;14.60;;
19414;SDS011;9843;48.882;12.592;2023-04-08T01:10:04;19.13;;;14.67;;
19414;SDS011;9843;48.882;12.592;2023-04-08T01:12:36;16.60;;;13.07;;
19414;SDS011;9843;48.882;12.592;2023-04-08T01:15:06;19.20;;;14.23;;
19414;SDS011;9843;48.882;12.592;2023-04-08T01:17:35;19.43;;;14.90;;
19414;SDS011;9843;48.882;12.592;2023-04-08T01:20:03;19.57;;;14.70;;
19414;SDS011;9843;48.882;12.592;2023-04-08T01:22:33;15.33;;;12.90;;
19414;SDS011;9843;48.882;12.592;2023-04-08T01:25:04;19.53;;;14.10;;
19414;SDS011;9843;48.882;12.592;2023-04-08T01:27:33;18.80;;;16.23;;
19414;SDS011;9843;48.882;12.592;2023-04-08T01:30:01;20.10;;;15.23;;
19414;SDS011;9843;48.882;12.592;2023-04-08T01:32:29;20.03;;;16.33;;
19414;SDS011;9843;48.882;12.592;2023-04-08T01:34:57;18.40;;;15.67;;
19414;SDS011;9843;48.882;12.592;2023-04-08T01:37:24;17.87;;;14.03;;
19414;SDS011;9843;48.882;12.592;2023-04-08T01:39:54;15.83;;;13.90;;
19414;SDS011;9843;48.882;12.592;2023-04-08T01:42:21;16.50;;;14.67;;
19414;SDS011;9843;48.882;12.592;2023-04-08T01:44:51;17.60;;;14.00;;
19414;SDS011;9843;48.882;12.592;2023-04-08T01:47:18;20.50;;;15.83;;
19414;SDS011;9843;48.882;12.592;2023-04-08T01:49:45;20.03;;;16.00;;
19414;SDS011;9843;48.882;12.592;2023-04-08T01:52:12;18.53;;;15.93;;
19414;SDS011;9843;48.882;12.592;2023-04-08T01:54:40;18.73;;;16.40;;
19414;SDS011;9843;48.882;12.592;2023-04-08T01:57:07;14.33;;;12.87;;
19414;SDS011;9843;48.882;12.592;2023-04-08T01:59:37;19.13;;;13.20;;
19414;SDS011;9843;48.882;12.592;2023-04-08T02:02:07;17.47;;;13.67;;
19414;SDS011;9843;48.882;12.592;2023-04-08T02:04:35;17.90;;;14.23;;
19414;SDS011;9843;48.882;12.592;2023-04-08T02:07:02;15.10;;;13.50;;
19414;SDS011;9843;48.882;12.592;2023-04-08T02:09:30;15.00;;;13.27;;
19414;SDS011;9843;48.882;12.592;2023-04-08T02:11:58;15.17;;;13.37;;
19414;SDS011;9843;48.882;12.592;2023-04-08T02:14:25;19.87;;;16.43;;
19414;SDS011;9843;48.882;12.592;2023-04-08T02:16:53;18.17;;;14.27;;
19414;SDS011;9843;48.882;12.592;2023-04-08T02:19:24;17.37;;;15.13;;
19414;SDS011;9843;48.882;12.592;2023-04-08T02:21:53;17.17;;;14.30;;
19414;SDS011;9843;48.882;12.592;2023-04-08T02:24:21;18.03;;;14.30;;
19414;SDS011;9843;48.882;12.592;2023-04-08T02:26:48;16.87;;;13.40;;
19414;SDS011;9843;48.882;12.592;2023-04-08T02:29:15;16.83;;;13.73;;
19414;SDS011;9843;48.882;12.592;2023-04-08T02:31:43;16.60;;;14.07;;
19414;SDS011;9843;48.882;12.592;2023-04-08T02:34:10;16.57;;;13.27;;
19414;SDS011;9843;48.882;12.592;2023-04-08T02:36:39;16.63;;;14.27;;
19414;SDS011;9843;48.882;12.592;2023-04-08T02:39:10;17.20;;;14.87;;
19414;SDS011;9843;48.882;12.592;2023-04-08T02:41:37;14.70;;;13.07;;
19414;SDS011;9843;48.882;12.592;2023-04-08T02:44:04;18.37;;;14.10;;
19414;SDS011;9843;48.882;12.592;2023-04-08T02:46:31;19.47;;;14.60;;
19414;SDS011;9843;48.882;12.592;2023-04-08T02:48:58;18.27;;;14.43;;
19414;SDS011;9843;48.882;12.592;2023-04-08T02:51:25;16.53;;;13.10;;
19414;SDS011;9843;48.882;12.592;2023-04-08T02:53:54;18.17;;;13.10;;
19414;SDS011;9843;48.882;12.592;2023-04-08T02:56:21;17.67;;;13.93;;
19414;SDS011;9843;48.882;12.592;2023-04-08T02:58:48;15.23;;;12.47;;
19414;SDS011;9843;48.882;12.592;2023-04-08T03:01:16;16.13;;;14.53;;
19414;SDS011;9843;48.882;12.592;2023-04-08T03:03:43;13.90;;;12.50;;
19414;SDS011;9843;48.882;12.592;2023-04-08T03:06:10;15.47;;;13.67;;
19414;SDS011;9843;48.882;12.592;2023-04-08T03:08:37;15.77;;;12.93;;
19414;SDS011;9843;48.882;12.592;2023-04-08T03:11:05;20.70;;;13.63;;
19414;SDS011;9843;48.882;12.592;2023-04-08T03:13:33;13.90;;;11.97;;
19414;SDS011;9843;48.882;12.592;2023-04-08T03:16:00;14.57;;;12.83;;
19414;SDS011;9843;48.882;12.592;2023-04-08T03:18:27;13.90;;;12.47;;
19414;SDS011;9843;48.882;12.592;2023-04-08T03:20:54;16.63;;;13.57;;
19414;SDS011;9843;48.882;12.592;2023-04-08T03:23:21;13.57;;;12.13;;
19414;SDS011;9843;48.882;12.592;2023-04-08T03:25:48;13.93;;;12.00;;
19414;SDS011;9843;48.882;12.592;2023-04-08T03:28:16;15.27;;;12.13;;
19414;SDS011;9843;48.882;12.592;2023-04-08T03:30:43;14.33;;;11.77;;
19414;SDS011;9843;48.882;12.592;2023-04-08T03:33:10;16.93;;;12.73;;
19414;SDS011;9843;48.882;12.592;2023-04-08T03:35:37;14.60;;;12.87;;
19414;SDS011;9843;48.882;12.592;2023-04-08T03:38:04;13.20;;;11.83;;
19414;SDS011;9843;48.882;12.592;2023-04-08T03:40:31;15.43;;;11.67;;
19414;SDS011;9843;48.882;12.592;2023-04-08T03:42:58;15.67;;;12.90;;
19414;SDS011;9843;48.882;12.592;2023-04-08T03:45:27;13.37;;;12.00;;
19414;SDS011;9843;48.882;12.592;2023-04-08T03:47:54;14.97;;;13.37;;
19414;SDS011;9843;48.882;12.592;2023-04-08T03:50:21;12.43;;;11.23;;
19414;SDS011;9843;48.882;12.592;2023-04-08T03:52:48;13.77;;;12.10;;
19414;SDS011;9843;48.882;12.592;2023-04-08T03:55:15;13.70;;;11.70;;
19414;SDS011;9843;48.882;12.592;2023-04-08T03:57:42;13.80;;;12.33;;
19414;SDS011;9843;48.882;12.592;2023-04-08T04:00:10;13.63;;;12.13;;
19414;SDS011;9843;48.882;12.592;2023-04-08T04:02:38;14.27;;;11.67;;
19414;SDS011;9843;48.882;12.592;2023-04-08T04:05:06;13.07;;;11.67;;
19414;SDS011;9843;48.882;12.592;2023-04-08T04:07:33;18.37;;;13.97;;
19414;SDS011;9843;48.882;12.592;2023-04-08T04:10:00;13.20;;;11.70;;
19414;SDS011;9843;48.882;12.592;2023-04-08T04:12:27;12.97;;;11.47;;
19414;SDS011;9843;48.882;12.592;2023-04-08T04:14:54;14.30;;;11.00;;
19414;SDS011;9843;48.882;12.592;2023-04-08T04:17:21;12.70;;;11.50;;
19414;SDS011;9843;48.882;12.592;2023-04-08T04:19:49;12.60;;;11.37;;
19414;SDS011;9843;48.882;12.592;2023-04-08T04:22:16;16.50;;;11.63;;
19414;SDS011;9843;48.882;12.592;2023-04-08T04:24:45;14.47;;;12.30;;
19414;SDS011;9843;48.882;12.592;2023-04-08T04:27:12;13.90;;;12.60;;
19414;SDS011;9843;48.882;12.592;2023-04-08T04:29:41;13.57;;;12.17;;
19414;SDS011;9843;48.882;12.592;2023-04-08T04:32:08;15.83;;;13.87;;
19414;SDS011;9843;48.882;12.592;2023-04-08T04:34:35;16.10;;;13.80;;
19414;SDS011;9843;48.882;12.592;2023-04-08T04:37:03;13.23;;;11.63;;
19414;SDS011;9843;48.882;12.592;2023-04-08T04:39:30;19.27;;;14.70;;
19414;SDS011;9843;48.882;12.592;2023-04-08T04:41:57;14.40;;;12.53;;
19414;SDS011;9843;48.882;12.592;2023-04-08T04:44:25;12.17;;;10.37;;
19414;SDS011;9843;48.882;12.592;2023-04-08T04:46:52;13.10;;;11.63;;
19414;SDS011;9843;48.882;12.592;2023-04-08T04:49:19;12.93;;;11.70;;
19414;SDS011;9843;48.882;12.592;2023-04-08T04:51:46;18.20;;;13.20;;
19414;SDS011;9843;48.882;12.592;2023-04-08T04:54:14;12.20;;;10.47;;
19414;SDS011;9843;48.882;12.592;2023-04-08T04:56:41;11.73;;;10.63;;
19414;SDS011;9843;48.882;12.592;2023-04-08T04:59:08;15.07;;;12.23;;
19414;SDS011;9843;48.882;12.592;2023-04-08T05:01:35;15.77;;;13.40;;
19414;SDS011;9843;48.882;12.592;2023-04-08T05:04:04;13.93;;;11.53;;
19414;SDS011;9843;48.882;12.592;2023-04-08T05:06:32;14.40;;;12.53;;
19414;SDS011;9843;48.882;12.592;2023-04-08T05:08:59;14.13;;;12.50;;
19414;SDS011;9843;48.882;12.592;2023-04-08T05:11:27;14.80;;;13.17;;
19414;SDS011;9843;48.882;12.592;2023-04-08T05:13:54;16.80;;;13.20;;
19414;SDS011;9843;48.882;12.592;2023-04-08T05:16:21;19.13;;;12.40;;
19414;SDS011;9843;48.882;12.592;2023-04-08T05:18:48;15.27;;;11.57;;
19414;SDS011;9843;48.882;12.592;2023-04-08T05:21:15;12.83;;;11.53;;
19414;SDS011;9843;48.882;12.592;2023-04-08T05:23:42;16.63;;;12.40;;
19414;SDS011;9843;48.882;12.592;2023-04-08T05:26:09;15.03;;;11.27;;
19414;SDS011;9843;48.882;12.592;2023-04-08T05:28:37;12.37;;;11.13;;
19414;SDS011;9843;48.882;12.592;2023-04-08T05:31:05;11.47;;;10.37;;
19414;SDS011;9843;48.882;12.592;2023-04-08T05:33:32;14.73;;;12.17;;
19414;SDS011;9843;48.882;12.592;2023-04-08T05:35:59;15.57;;;11.73;;
19414;SDS011;9843;48.882;12.592;2023-04-08T05:38:26;16.20;;;12.47;;
19414;SDS011;9843;48.882;12.592;2023-04-08T05:40:53;14.73;;;12.93;;
19414;SDS011;9843;48.882;12.592;2023-04-08T05:43:20;16.57;;;13.27;;
19414;SDS011;9843;48.882;12.592;2023-04-08T05:45:49;22.97;;;13.80;;
19414;SDS011;9843;48.882;12.592;2023-04-08T05:48:16;14.47;;;12.47;;
19414;SDS011;9843;48.882;12.592;2023-04-08T05:50:43;14.17;;;12.33;;
19414;SDS011;9843;48.882;12.592;2023-04-08T05:53:12;18.87;;;14.50;;
19414;SDS011;9843;48.882;12.592;2023-04-08T05:55:39;15.33;;;13.77;;
19414;SDS011;9843;48.882;12.592;2023-04-08T05:58:06;15.43;;;13.47;;
19414;SDS011;9843;48.882;12.592;2023-04-08T06:00:33;18.07;;;14.43;;
19414;SDS011;9843;48.882;12.592;2023-04-08T06:03:02;17.30;;;15.33;;
19414;SDS011;9843;48.882;12.592;2023-04-08T06:05:30;20.30;;;17.33;;
19414;SDS011;9843;48.882;12.592;2023-04-08T06:07:57;19.17;;;17.27;;
19414;SDS011;9843;48.882;12.592;2023-04-08T06:10:24;22.73;;;18.53;;
19414;SDS011;9843;48.882;12.592;2023-04-08T06:12:51;23.90;;;18.83;;
19414;SDS011;9843;48.882;12.592;2023-04-08T06:15:18;24.73;;;22.00;;
19414;SDS011;9843;48.882;12.592;2023-04-08T06:17:46;26.07;;;21.50;;
19414;SDS011;9843;48.882;12.592;2023-04-08T06:20:14;22.60;;;19.47;;
19414;SDS011;9843;48.882;12.592;2023-04-08T06:22:41;21.03;;;18.47;;
19414;SDS011;9843;48.882;12.592;2023-04-08T06:25:08;23.47;;;20.43;;
19414;SDS011;9843;48.882;12.592;2023-04-08T06:27:36;26.33;;;20.13;;
19414;SDS011;9843;48.882;12.592;2023-04-08T06:30:03;25.20;;;21.20;;
19414;SDS011;9843;48.882;12.592;2023-04-08T06:32:30;31.30;;;24.43;;
19414;SDS011;9843;48.882;12.592;2023-04-08T06:34:58;34.17;;;24.53;;
19414;SDS011;9843;48.882;12.592;2023-04-08T06:37:26;29.03;;;25.10;;
19414;SDS011;9843;48.882;12.592;2023-04-08T06:39:53;29.57;;;24.93;;
19414;SDS011;9843;48.882;12.592;2023-04-08T06:42:20;23.40;;;20.97;;
19414;SDS011;9843;48.882;12.592;2023-04-08T06:44:47;27.73;;;22.70;;
19414;SDS011;9843;48.882;12.592;2023-04-08T06:47:14;26.57;;;21.07;;
19414;SDS011;9843;48.882;12.592;2023-04-08T06:49:41;25.90;;;23.10;;
19414;SDS011;9843;48.882;12.592;2023-04-08T06:52:08;27.33;;;22.67;;
19414;SDS011;9843;48.882;12.592;2023-04-08T06:54:36;32.63;;;26.00;;
19414;SDS011;9843;48.882;12.592;2023-04-08T06:57:03;25.00;;;21.77;;
19414;SDS011;9843;48.882;12.592;2023-04-08T06:59:31;27.07;;;21.90;;
19414;SDS011;9843;48.882;12.592;2023-04-08T07:01:58;23.80;;;21.23;;
19414;SDS011;9843;48.882;12.592;2023-04-08T07:04:25;24.07;;;20.43;;
19414;SDS011;9843;48.882;12.592;2023-04-08T07:06:52;22.37;;;20.10;;
19414;SDS011;9843;48.882;12.592;2023-04-08T07:09:19;23.63;;;19.60;;
19414;SDS011;9843;48.882;12.592;2023-04-08T07:11:47;25.47;;;19.83;;
19414;SDS011;9843;48.882;12.592;2023-04-08T07:14:14;24.53;;;21.63;;
19414;SDS011;9843;48.882;12.592;2023-04-08T07:16:42;26.60;;;20.93;;
19414;SDS011;9843;48.882;12.592;2023-04-08T07:19:09;29.27;;;22.37;;
19414;SDS011;9843;48.882;12.592;2023-04-08T07:21:36;22.77;;;19.77;;
19414;SDS011;9843;48.882;12.592;2023-04-08T07:24:03;22.37;;;20.07;;
19414;SDS011;9843;48.882;12.592;2023-04-08T07:26:30;23.80;;;21.27;;
19414;SDS011;9843;48.882;12.592;2023-04-08T07:28:58;21.33;;;17.90;;
19414;SDS011;9843;48.882;12.592;2023-04-08T07:31:25;24.23;;;20.37;;
19414;SDS011;9843;48.882;12.592;2023-04-08T07:33:52;22.07;;;19.57;;
19414;SDS011;9843;48.882;12.592;2023-04-08T07:36:19;22.43;;;19.00;;
19414;SDS011;9843;48.882;12.592;2023-04-08T07:38:46;19.40;;;17.60;;
19414;SDS011;9843;48.882;12.592;2023-04-08T07:41:13;23.20;;;18.27;;
19414;SDS011;9843;48.882;12.592;2023-04-08T07:43:40;20.27;;;18.00;;
19414;SDS011;9843;48.882;12.592;2023-04-08T07:46:09;18.07;;;15.90;;
19414;SDS011;9843;48.882;12.592;2023-04-08T07:48:36;17.07;;;15.50;;
19414;SDS011;9843;48.882;12.592;2023-04-08T07:51:03;19.43;;;17.40;;
19414;SDS011;9843;48.882;12.592;2023-04-08T07:53:30;17.27;;;15.53;;
19414;SDS011;9843;48.882;12.592;2023-04-08T07:55:58;18.53;;;13.83;;
19414;SDS011;9843;48.882;12.592;2023-04-08T07:58:25;15.03;;;13.57;;
19414;SDS011;9843;48.882;12.592;2023-04-08T08:00:52;14.90;;;13.40;;
19414;SDS011;9843;48.882;12.592;2023-04-08T08:03:22;15.93;;;12.23;;
19414;SDS011;9843;48.882;12.592;2023-04-08T08:05:49;13.07;;;11.87;;
19414;SDS011;9843;48.882;12.592;2023-04-08T08:08:16;14.80;;;13.40;;
19414;SDS011;9843;48.882;12.592;2023-04-08T08:10:43;12.27;;;11.10;;
19414;SDS011;9843;48.882;12.592;2023-04-08T08:13:10;15.20;;;13.43;;
19414;SDS011;9843;48.882;12.592;2023-04-08T08:15:41;13.60;;;12.20;;
19414;SDS011;9843;48.882;12.592;2023-04-08T08:18:08;13.57;;;12.13;;
19414;SDS011;9843;48.882;12.592;2023-04-08T08:20:36;13.30;;;11.90;;
19414;SDS011;9843;48.882;12.592;2023-04-08T08:23:03;12.97;;;11.67;;
19414;SDS011;9843;48.882;12.592;2023-04-08T08:25:30;13.03;;;11.67;;
19414;SDS011;9843;48.882;12.592;2023-04-08T08:27:57;14.30;;;12.80;;
19414;SDS011;9843;48.882;12.592;2023-04-08T08:30:24;19.93;;;14.33;;
19414;SDS011;9843;48.882;12.592;2023-04-08T08:32:51;14.13;;;12.73;;
19414;SDS011;9843;48.882;12.592;2023-04-08T08:35:18;16.90;;;13.87;;
19414;SDS011;9843;48.882;12.592;2023-04-08T08:37:47;13.03;;;11.83;;
19414;SDS011;9843;48.882;12.592;2023-04-08T08:40:14;15.47;;;13.93;;
19414;SDS011;9843;48.882;12.592;2023-04-08T08:42:41;12.53;;;11.23;;
19414;SDS011;9843;48.882;12.592;2023-04-08T08:45:08;13.50;;;12.20;;
19414;SDS011;9843;48.882;12.592;2023-04-08T08:47:35;13.63;;;12.33;;
19414;SDS011;9843;48.882;12.592;2023-04-08T08:50:03;14.70;;;13.20;;
19414;SDS011;9843;48.882;12.592;2023-04-08T08:52:30;15.10;;;13.70;;
19414;SDS011;9843;48.882;12.592;2023-04-08T08:54:58;15.00;;;13.57;;
19414;SDS011;9843;48.882;12.592;2023-04-08T08:57:25;17.77;;;15.87;;
19414;SDS011;9843;48.882;12.592;2023-04-08T08:59:52;17.97;;;16.10;;
19414;SDS011;9843;48.882;12.592;2023-04-08T09:02:23;15.73;;;14.20;;
19414;SDS011;9843;48.882;12.592;2023-04-08T09:04:57;15.50;;;13.77;;
19414;SDS011;9843;48.882;12.592;2023-04-08T09:07:25;14.07;;;12.77;;
19414;SDS011;9843;48.882;12.592;2023-04-08T09:09:52;16.67;;;15.13;;
19414;SDS011;9843;48.882;12.592;2023-04-08T09:12:21;15.67;;;14.07;;
19414;SDS011;9843;48.882;12.592;2023-04-08T09:14:48;14.97;;;13.17;;
19414;SDS011;9843;48.882;12.592;2023-04-08T09:17:30;17.67;;;15.97;;
19414;SDS011;9843;48.882;12.592;2023-04-08T09:20:04;19.60;;;17.27;;
19414;SDS011;9843;48.882;12.592;2023-04-08T09:22:33;19.17;;;17.33;;
19414;SDS011;9843;48.882;12.592;2023-04-08T09:25:04;20.33;;;16.30;;
19414;SDS011;9843;48.882;12.592;2023-04-08T09:27:49;16.57;;;14.87;;
19414;SDS011;9843;48.882;12.592;2023-04-08T09:30:17;16.70;;;15.07;;
19414;SDS011;9843;48.882;12.592;2023-04-08T09:32:48;16.37;;;14.63;;
19414;SDS011;9843;48.882;12.592;2023-04-08T09:35:16;18.03;;;15.23;;
19414;SDS011;9843;48.882;12.592;2023-04-08T09:37:43;16.83;;;15.03;;
19414;SDS011;9843;48.882;12.592;2023-04-08T09:40:10;16.67;;;14.83;;
19414;SDS011;9843;48.882;12.592;2023-04-08T09:42:40;17.43;;;15.57;;
19414;SDS011;9843;48.882;12.592;2023-04-08T09:45:09;15.13;;;13.60;;
19414;SDS011;9843;48.882;12.592;2023-04-08T09:47:38;15.80;;;14.13;;
19414;SDS011;9843;48.882;12.592;2023-04-08T09:50:06;16.20;;;14.53;;
19414;SDS011;9843;48.882;12.592;2023-04-08T09:52:37;16.17;;;14.57;;
19414;SDS011;9843;48.882;12.592;2023-04-08T09:55:07;19.43;;;15.10;;
19414;SDS011;9843;48.882;12.592;2023-04-08T09:57:36;18.03;;;16.13;;
19414;SDS011;9843;48.882;12.592;2023-04-08T10:00:09;13.83;;;12.50;;
19414;SDS011;9843;48.882;12.592;2023-04-08T10:02:39;13.27;;;11.90;;
19414;SDS011;9843;48.882;12.592;2023-04-08T10:05:09;14.47;;;12.97;;
19414;SDS011;9843;48.882;12.592;2023-04-08T10:07:38;14.80;;;13.00;;
19414;SDS011;9843;48.882;12.592;2023-04-08T10:10:06;14.47;;;13.07;;
19414;SDS011;9843;48.882;12.592;2023-04-08T10:12:34;13.93;;;12.50;;
19414;SDS011;9843;48.882;12.592;2023-04-08T10:17:48;14.70;;;13.13;;
19414;SDS011;9843;48.882;12.592;2023-04-08T10:22:58;12.27;;;10.80;;
19414;SDS011;9843;48.882;12.592;2023-04-08T10:25:29;12.70;;;11.50;;
19414;SDS011;9843;48.882;12.592;2023-04-08T10:27:56;11.60;;;10.40;;
19414;SDS011;9843;48.882;12.592;2023-04-08T10:30:39;10.63;;;9.53;;
19414;SDS011;9843;48.882;12.592;2023-04-08T10:33:11;12.87;;;11.37;;
19414;SDS011;9843;48.882;12.592;2023-04-08T10:35:40;9.63;;;8.63;;
19414;SDS011;9843;48.882;12.592;2023-04-08T10:38:10;10.27;;;9.27;;
19414;SDS011;9843;48.882;12.592;2023-04-08T10:40:38;9.93;;;9.10;;
19414;SDS011;9843;48.882;12.592;2023-04-08T10:43:06;10.63;;;9.57;;
19414;SDS011;9843;48.882;12.592;2023-04-08T10:45:34;13.47;;;9.47;;
19414;SDS011;9843;48.882;12.592;2023-04-08T10:48:12;8.63;;;7.70;;
19414;SDS011;9843;48.882;12.592;2023-04-08T10:50:39;10.43;;;9.37;;
19414;SDS011;9843;48.882;12.592;2023-04-08T10:53:06;8.03;;;7.23;;
19414;SDS011;9843;48.882;12.592;2023-04-08T10:55:33;8.30;;;7.43;;
19414;SDS011;9843;48.882;12.592;2023-04-08T10:58:04;5.93;;;5.33;;
19414;SDS011;9843;48.882;12.592;2023-04-08T11:00:32;7.30;;;6.63;;
19414;SDS011;9843;48.882;12.592;2023-04-08T11:02:59;6.50;;;5.90;;
19414;SDS011;9843;48.882;12.592;2023-04-08T11:05:27;5.90;;;5.33;;
19414;SDS011;9843;48.882;12.592;2023-04-08T11:07:55;7.03;;;6.43;;
19414;SDS011;9843;48.882;12.592;2023-04-08T11:10:22;7.50;;;6.90;;
19414;SDS011;9843;48.882;12.592;2023-04-08T11:12:49;7.60;;;6.90;;
19414;SDS011;9843;48.882;12.592;2023-04-08T11:15:16;7.27;;;6.57;;
19414;SDS011;9843;48.882;12.592;2023-04-08T11:17:43;7.57;;;6.87;;
19414;SDS011;9843;48.882;12.592;2023-04-08T11:20:11;7.50;;;6.70;;
19414;SDS011;9843;48.882;12.592;2023-04-08T11:22:40;7.73;;;6.97;;
19414;SDS011;9843;48.882;12.592;2023-04-08T11:25:08;8.50;;;7.67;;
19414;SDS011;9843;48.882;12.592;2023-04-08T11:27:35;8.80;;;7.87;;
19414;SDS011;9843;48.882;12.592;2023-04-08T11:30:02;9.80;;;9.00;;
19414;SDS011;9843;48.882;12.592;2023-04-08T11:32:29;8.43;;;7.63;;
19414;SDS011;9843;48.882;12.592;2023-04-08T11:34:58;9.17;;;8.30;;
19414;SDS011;9843;48.882;12.592;2023-04-08T11:37:26;8.77;;;7.73;;
19414;SDS011;9843;48.882;12.592;2023-04-08T11:40:03;8.80;;;8.00;;
19414;SDS011;9843;48.882;12.592;2023-04-08T11:42:32;8.77;;;7.67;;
19414;SDS011;9843;48.882;12.592;2023-04-08T11:44:59;7.70;;;7.00;;
19414;SDS011;9843;48.882;12.592;2023-04-08T11:47:29;7.13;;;6.43;;
19414;SDS011;9843;48.882;12.592;2023-04-08T11:49:57;8.83;;;8.03;;
19414;SDS011;9843;48.882;12.592;2023-04-08T11:52:39;12.97;;;7.07;;
19414;SDS011;9843;48.882;12.592;2023-04-08T11:55:08;8.60;;;7.80;;
19414;SDS011;9843;48.882;12.592;2023-04-08T11:57:35;9.67;;;8.53;;
19414;SDS011;9843;48.882;12.592;2023-04-08T12:00:03;7.83;;;7.03;;
19414;SDS011;9843;48.882;12.592;2023-04-08T12:02:30;7.87;;;7.17;;
19414;SDS011;9843;48.882;12.592;2023-04-08T12:04:57;7.83;;;7.03;;
19414;SDS011;9843;48.882;12.592;2023-04-08T12:07:25;8.13;;;7.40;;
19414;SDS011;9843;48.882;12.592;2023-04-08T12:09:52;8.03;;;7.43;;
19414;SDS011;9843;48.882;12.592;2023-04-08T12:12:21;9.37;;;8.47;;
19414;SDS011;9843;48.882;12.592;2023-04-08T12:14:48;8.13;;;7.33;;
19414;SDS011;9843;48.882;12.592;2023-04-08T12:17:15;9.57;;;8.67;;
19414;SDS011;9843;48.882;12.592;2023-04-08T12:19:42;8.57;;;7.87;;
19414;SDS011;9843;48.882;12.592;2023-04-08T12:22:09;8.27;;;7.57;;
19414;SDS011;9843;48.882;12.592;2023-04-08T12:24:36;9.63;;;8.63;;
19414;SDS011;9843;48.882;12.592;2023-04-08T12:27:03;9.87;;;8.47;;
19414;SDS011;9843;48.882;12.592;2023-04-08T12:29:31;8.93;;;8.10;;
19414;SDS011;9843;48.882;12.592;2023-04-08T12:31:58;7.53;;;6.90;;
19414;SDS011;9843;48.882;12.592;2023-04-08T12:34:26;10.47;;;8.80;;
19414;SDS011;9843;48.882;12.592;2023-04-08T12:36:53;9.33;;;8.43;;
19414;SDS011;9843;48.882;12.592;2023-04-08T12:39:20;8.23;;;7.53;;
19414;SDS011;9843;48.882;12.592;2023-04-08T12:41:47;8.90;;;8.10;;
19414;SDS011;9843;48.882;12.592;2023-04-08T12:44:15;8.53;;;7.73;;
19414;SDS011;9843;48.882;12.592;2023-04-08T12:46:43;8.53;;;7.73;;
19414;SDS011;9843;48.882;12.592;2023-04-08T12:49:10;8.13;;;7.00;;
19414;SDS011;9843;48.882;12.592;2023-04-08T12:51:37;10.67;;;7.93;;
19414;SDS011;9843;48.882;12.592;2023-04-08T12:54:04;7.17;;;6.50;;
19414;SDS011;9843;48.882;12.592;2023-04-08T12:56:32;6.60;;;6.10;;
19414;SDS011;9843;48.882;12.592;2023-04-08T12:59:00;7.87;;;6.93;;
19414;SDS011;9843;48.882;12.592;2023-04-08T13:01:27;7.97;;;7.17;;
19414;SDS011;9843;48.882;12.592;2023-04-08T13:03:55;7.10;;;6.43;;
19414;SDS011;9843;48.882;12.592;2023-04-08T13:06:22;7.13;;;6.53;;
19414;SDS011;9843;48.882;12.592;2023-04-08T13:08:49;8.00;;;7.23;;
19414;SDS011;9843;48.882;12.592;2023-04-08T13:11:17;8.63;;;6.50;;
19414;SDS011;9843;48.882;12.592;2023-04-08T13:13:45;7.87;;;7.23;;
19414;SDS011;9843;48.882;12.592;2023-04-08T13:16:12;8.30;;;7.50;;
19414;SDS011;9843;48.882;12.592;2023-04-08T13:18:39;7.17;;;6.63;;
19414;SDS011;9843;48.882;12.592;2023-04-08T13:21:07;7.77;;;7.13;;
19414;SDS011;9843;48.882;12.592;2023-04-08T13:23:35;7.47;;;6.77;;
19414;SDS011;9843;48.882;12.592;2023-04-08T13:26:02;7.90;;;7.10;;
19414;SDS011;9843;48.882;12.592;2023-04-08T13:28:29;6.90;;;6.40;;
19414;SDS011;9843;48.882;12.592;2023-04-08T13:30:56;8.50;;;7.60;;
19414;SDS011;9843;48.882;12.592;2023-04-08T13:33:23;8.70;;;7.80;;
19414;SDS011;9843;48.882;12.592;2023-04-08T13:35:50;9.47;;;8.47;;
19414;SDS011;9843;48.882;12.592;2023-04-08T13:38:18;10.27;;;9.23;;
19414;SDS011;9843;48.882;12.592;2023-04-08T13:40:45;8.60;;;7.87;;
19414;SDS011;9843;48.882;12.592;2023-04-08T13:43:12;8.77;;;7.97;;
19414;SDS011;9843;48.882;12.592;2023-04-08T13:45:39;9.63;;;8.63;;
19414;SDS011;9843;48.882;12.592;2023-04-08T13:48:07;9.20;;;8.40;;
19414;SDS011;9843;48.882;12.592;2023-04-08T13:50:34;10.10;;;9.10;;
19414;SDS011;9843;48.882;12.592;2023-04-08T13:53:02;7.93;;;7.13;;
19414;SDS011;9843;48.882;12.592;2023-04-08T13:55:31;10.53;;;9.53;;
19414;SDS011;9843;48.882;12.592;2023-04-08T13:57:58;8.67;;;7.87;;
19414;SDS011;9843;48.882;12.592;2023-04-08T14:00:25;9.33;;;8.53;;
19414;SDS011;9843;48.882;12.592;2023-04-08T14:02:52;8.13;;;7.37;;
19414;SDS011;9843;48.882;12.592;2023-04-08T14:05:19;9.03;;;8.23;;
19414;SDS011;9843;48.882;12.592;2023-04-08T14:07:46;10.27;;;8.83;;
19414;SDS011;9843;48.882;12.592;2023-04-08T14:10:13;9.20;;;8.30;;
19414;SDS011;9843;48.882;12.592;2023-04-08T14:12:42;8.73;;;8.03;;
19414;SDS011;9843;48.882;12.592;2023-04-08T14:15:10;8.97;;;8.07;;
19414;SDS011;9843;48.882;12.592;2023-04-08T14:17:37;11.13;;;10.13;;
19414;SDS011;9843;48.882;12.592;2023-04-08T14:20:05;9.43;;;8.63;;
19414;SDS011;9843;48.882;12.592;2023-04-08T14:22:32;10.00;;;9.10;;
19414;SDS011;9843;48.882;12.592;2023-04-08T14:24:59;10.27;;;9.27;;
19414;SDS011;9843;48.882;12.592;2023-04-08T14:27:27;10.13;;;9.23;;
19414;SDS011;9843;48.882;12.592;2023-04-08T14:29:55;10.00;;;9.00;;
19414;SDS011;9843;48.882;12.592;2023-04-08T14:32:22;10.30;;;9.50;;
19414;SDS011;9843;48.882;12.592;2023-04-08T14:34:49;10.43;;;9.43;;
19414;SDS011;9843;48.882;12.592;2023-04-08T14:37:16;10.30;;;9.40;;